Lemoore Naval Air Station, California
Current Conditions -  °F | °C
As of 4:09 AM on Thursday 29 Jan 2015 (Local Time) from KNLC Reporting Station
Overcast Overcast  
Wind Chill: 41°   Ceiling: 1100
Heat Index: 41°   Visibility: NA
Dew Point: 40°   Wind: 0mph
Humidity: 96%   Direction: NA
Pressure: 30.14"   Gusts: NA
Location:  36.2897°N, 119.848°W
Report Text: KNLC 291209Z AUTO 00000KT OVC011 05/04 A3014 RMK AO2 T00500044 RVRNO $
Loading
Personal Weather Stations






























Interactive Weather Map New forecast layout! Learn more

10-Day Weather Forecast

Advertisements
Track Severe Weather on mobile